Time;durP1;ratioP1;P1;durP2;ratioP2;P2;SDS_P1;SDS_P2;PMS_P1;PMS_P2;Temp;Humidity;BMP_temperature;BMP_pressure;BME280_temperature;BME280_humidity;BME280_pressure;Samples;Min_cycle;Max_cycle;Signal;HPM_P1;HPM_P2
2021/08/08 00:00:42;;;;;;;1.30;0.50;;;15.00;91.70;;;;;;5016291;28;20499;-64
2021/08/08 00:03:07;;;;;;;0.30;0.30;;;14.90;91.80;;;;;;5009981;28;20133;-64
2021/08/08 00:05:33;;;;;;;0.60;0.60;;;14.90;91.80;;;;;;5015708;28;20120;-64
2021/08/08 00:07:59;;;;;;;0.40;0.40;;;14.90;91.90;;;;;;5016166;28;20029;-64
2021/08/08 00:10:24;;;;;;;0.57;0.57;;;14.90;91.90;;;;;;5007949;28;20022;-65
2021/08/08 00:12:50;;;;;;;0.40;0.40;;;14.80;92.10;;;;;;5013175;28;20065;-64
2021/08/08 00:15:16;;;;;;;1.40;0.50;;;14.80;92.40;;;;;;5011211;28;20057;-64
2021/08/08 00:17:42;;;;;;;1.65;0.50;;;14.70;92.50;;;;;;5013837;28;20457;-64
2021/08/08 00:20:09;;;;;;;0.95;0.50;;;14.70;92.50;;;;;;5013334;28;20140;-65
2021/08/08 00:22:34;;;;;;;0.55;0.40;;;14.70;92.80;;;;;;5011088;28;20501;-64
2021/08/08 00:25:02;;;;;;;0.50;0.50;;;14.70;92.60;;;;;;5010355;28;20030;-65
2021/08/08 00:27:28;;;;;;;0.40;0.40;;;14.80;92.50;;;;;;5011058;28;20849;-65
2021/08/08 00:29:54;;;;;;;2.17;0.40;;;14.80;92.40;;;;;;5011289;28;20038;-65
2021/08/08 00:32:19;;;;;;;0.95;0.43;;;14.80;92.40;;;;;;5011329;28;20069;-64
2021/08/08 00:34:45;;;;;;;0.60;0.60;;;14.70;92.30;;;;;;5015217;28;20735;-65
2021/08/08 00:37:10;;;;;;;1.33;0.40;;;14.70;92.30;;;;;;5013261;28;20046;-64
2021/08/08 00:39:36;;;;;;;1.45;0.50;;;14.70;92.30;;;;;;5013740;28;20025;-64
2021/08/08 00:42:02;;;;;;;1.23;0.50;;;14.80;92.30;;;;;;5014578;28;20111;-65
2021/08/08 00:44:28;;;;;;;0.47;0.40;;;14.80;92.20;;;;;;5013676;28;20041;-65
2021/08/08 00:46:54;;;;;;;0.52;0.52;;;14.80;92.30;;;;;;5025335;28;20038;-64
2021/08/08 00:49:19;;;;;;;0.40;0.40;;;14.80;92.30;;;;;;5018764;28;20403;-64
2021/08/08 00:51:46;;;;;;;0.55;0.30;;;14.80;92.30;;;;;;5018880;28;20029;-64
2021/08/08 00:54:12;;;;;;;0.30;0.30;;;14.70;92.40;;;;;;5016027;28;20022;-65
2021/08/08 00:56:38;;;;;;;0.30;0.30;;;14.70;92.70;;;;;;5015283;28;20042;-64
2021/08/08 00:59:05;;;;;;;0.88;0.30;;;14.80;92.50;;;;;;5013236;28;20034;-65
2021/08/08 01:01:36;;;;;;;1.25;0.50;;;14.80;92.40;;;;;;5027235;28;20034;-65
2021/08/08 01:04:04;;;;;;;3.58;0.60;;;14.70;92.60;;;;;;5014014;28;20042;-64
2021/08/08 01:06:42;;;;;;;0.30;0.30;;;14.70;92.50;;;;;;5013172;28;20467;-64
2021/08/08 01:09:11;;;;;;;0.55;0.32;;;14.60;92.80;;;;;;5014244;28;20533;-64
2021/08/08 01:11:38;;;;;;;0.50;0.50;;;14.60;92.80;;;;;;5014703;28;20030;-65
2021/08/08 01:14:06;;;;;;;2.67;0.52;;;14.60;92.80;;;;;;5013335;28;20474;-65
2021/08/08 01:16:32;;;;;;;1.13;0.45;;;14.60;92.70;;;;;;5013546;28;20463;-65
2021/08/08 01:18:59;;;;;;;0.75;0.52;;;14.70;93.30;;;;;;5011847;28;20490;-64
2021/08/08 01:21:29;;;;;;;1.67;0.50;;;14.70;92.70;;;;;;5009649;28;20045;-64
2021/08/08 01:23:59;;;;;;;2.30;0.60;;;14.70;92.50;;;;;;5015275;28;20409;-64
2021/08/08 01:26:27;;;;;;;0.70;0.70;;;14.80;92.50;;;;;;5025007;28;20116;-68
2021/08/08 01:28:54;;;;;;;0.40;0.40;;;14.70;92.50;;;;;;5021873;28;20454;-65
2021/08/08 01:31:20;;;;;;;0.40;0.40;;;14.70;93.00;;;;;;5011894;28;20294;-64
2021/08/08 01:33:46;;;;;;;0.52;0.40;;;14.70;92.50;;;;;;5017065;28;20101;-64
2021/08/08 01:36:12;;;;;;;1.27;0.40;;;14.70;92.50;;;;;;5040684;28;20041;-65
2021/08/08 01:38:42;;;;;;;3.33;0.85;;;14.60;92.60;;;;;;5011954;28;20038;-64
2021/08/08 01:41:10;;;;;;;0.32;0.32;;;14.60;92.80;;;;;;5015001;28;20042;-65
2021/08/08 01:43:40;;;;;;;0.57;0.43;;;14.50;92.80;;;;;;5014888;28;20096;-65
2021/08/08 01:46:08;;;;;;;4.15;0.85;;;14.60;92.70;;;;;;5011941;28;20117;-64
2021/08/08 01:48:37;;;;;;;2.42;0.80;;;14.60;92.50;;;;;;5013858;28;20037;-64
2021/08/08 01:51:03;;;;;;;2.90;1.30;;;14.70;92.40;;;;;;5013502;28;20042;-65
2021/08/08 01:53:28;;;;;;;3.85;1.08;;;14.70;92.40;;;;;;5013830;28;20022;-65
2021/08/08 01:55:54;;;;;;;2.20;1.35;;;14.60;92.50;;;;;;5017924;28;20113;-65
2021/08/08 01:58:20;;;;;;;1.20;0.57;;;14.60;92.60;;;;;;5012530;28;20378;-64
2021/08/08 02:00:50;;;;;;;2.15;0.60;;;14.50;92.40;;;;;;5011792;28;20052;-64
2021/08/08 02:03:15;;;;;;;0.90;0.60;;;14.60;92.30;;;;;;5012624;28;20375;-64
2021/08/08 02:05:41;;;;;;;0.40;0.38;;;14.60;92.10;;;;;;5012096;28;20038;-64
2021/08/08 02:08:07;;;;;;;1.45;0.47;;;14.70;92.00;;;;;;5009922;28;20037;-65
2021/08/08 02:10:32;;;;;;;2.40;0.68;;;14.70;91.90;;;;;;5011813;28;20026;-64
2021/08/08 02:12:58;;;;;;;0.40;0.40;;;14.70;91.90;;;;;;5012605;28;20101;-65
2021/08/08 02:15:24;;;;;;;1.15;0.73;;;14.70;92.20;;;;;;5012304;28;20537;-64
2021/08/08 02:17:50;;;;;;;2.85;1.60;;;14.70;91.60;;;;;;5012508;28;20037;-65
2021/08/08 02:20:17;;;;;;;0.47;0.45;;;14.70;91.80;;;;;;5011856;28;20080;-65
2021/08/08 02:22:46;;;;;;;0.40;0.40;;;14.70;91.50;;;;;;5008527;28;20026;-64
2021/08/08 02:25:13;;;;;;;0.40;0.40;;;14.70;91.70;;;;;;5011589;28;20062;-65
2021/08/08 02:27:40;;;;;;;0.50;0.50;;;14.70;91.60;;;;;;5011413;28;20500;-65
2021/08/08 02:30:08;;;;;;;1.65;0.50;;;14.70;91.70;;;;;;5010766;28;20025;-65
2021/08/08 02:32:33;;;;;;;2.05;0.80;;;14.60;91.60;;;;;;5011179;28;20039;-64
2021/08/08 02:34:59;;;;;;;0.57;0.50;;;14.60;91.50;;;;;;5011284;28;20705;-65
2021/08/08 02:37:25;;;;;;;1.60;0.77;;;14.60;91.50;;;;;;5011370;28;20060;-64
2021/08/08 02:39:50;;;;;;;0.50;0.50;;;14.60;91.40;;;;;;5010731;28;20044;-64
2021/08/08 02:42:16;;;;;;;0.85;0.30;;;14.60;91.40;;;;;;5007638;28;20518;-64
2021/08/08 02:44:42;;;;;;;0.45;0.45;;;14.60;91.30;;;;;;5023602;28;20080;-64
2021/08/08 02:47:07;;;;;;;3.03;0.70;;;14.60;91.40;;;;;;5012516;28;20111;-64
2021/08/08 02:49:33;;;;;;;1.83;0.50;;;14.50;91.40;;;;;;5012263;28;20140;-64
2021/08/08 02:51:59;;;;;;;0.50;0.50;;;14.50;91.50;;;;;;5009388;28;20489;-65
2021/08/08 02:54:25;;;;;;;0.57;0.57;;;14.50;91.50;;;;;;5028797;28;20030;-65
2021/08/08 02:56:50;;;;;;;1.23;0.50;;;14.50;91.40;;;;;;5011081;28;20486;-65
2021/08/08 02:59:16;;;;;;;1.45;1.13;;;14.40;91.50;;;;;;5013192;28;20876;-65
2021/08/08 03:01:42;;;;;;;3.60;0.68;;;14.40;91.70;;;;;;5013667;28;20034;-64
2021/08/08 03:04:07;;;;;;;0.55;0.50;;;14.30;91.90;;;;;;5012221;28;20065;-64
2021/08/08 03:06:33;;;;;;;1.92;0.90;;;14.30;91.80;;;;;;5008571;28;20026;-65
2021/08/08 03:08:59;;;;;;;2.25;0.73;;;14.30;92.00;;;;;;5009458;28;20030;-65
2021/08/08 03:11:24;;;;;;;0.60;0.60;;;14.20;92.20;;;;;;5006982;28;20084;-65
2021/08/08 03:13:50;;;;;;;1.70;0.70;;;14.20;92.10;;;;;;5007282;28;20794;-65
2021/08/08 03:16:15;;;;;;;3.13;0.85;;;14.10;92.10;;;;;;5014344;28;20363;-65
2021/08/08 03:18:41;;;;;;;2.95;0.70;;;14.10;92.30;;;;;;5012816;28;20033;-64
2021/08/08 03:21:07;;;;;;;3.72;0.65;;;14.10;92.30;;;;;;5009103;28;20034;-64
2021/08/08 03:23:34;;;;;;;0.60;0.60;;;14.10;92.20;;;;;;5009638;28;20482;-64
2021/08/08 03:26:00;;;;;;;0.70;0.70;;;14.20;92.00;;;;;;5011745;28;20513;-64
2021/08/08 03:28:25;;;;;;;1.95;0.70;;;14.20;91.90;;;;;;5023539;28;20030;-64
2021/08/08 03:30:51;;;;;;;0.77;0.77;;;14.00;92.00;;;;;;5010586;28;20029;-64
2021/08/08 03:33:16;;;;;;;2.40;0.60;;;14.00;92.10;;;;;;5009087;28;20029;-64
2021/08/08 03:35:42;;;;;;;0.65;0.40;;;13.90;92.20;;;;;;5012025;28;20035;-65
2021/08/08 03:38:08;;;;;;;0.45;0.45;;;13.90;92.10;;;;;;5007621;28;20506;-64
2021/08/08 03:40:35;;;;;;;0.60;0.60;;;13.80;92.10;;;;;;5014564;28;20026;-64
2021/08/08 03:43:01;;;;;;;0.82;0.60;;;13.70;92.40;;;;;;5009478;28;20072;-65
2021/08/08 03:45:26;;;;;;;0.63;0.60;;;13.80;92.40;;;;;;5006409;28;20030;-65
2021/08/08 03:47:52;;;;;;;5.10;0.90;;;13.80;92.30;;;;;;5006087;28;20040;-64
2021/08/08 03:50:18;;;;;;;0.45;0.45;;;13.90;92.20;;;;;;5011872;28;20386;-66
2021/08/08 03:52:43;;;;;;;3.40;0.60;;;13.80;92.20;;;;;;5009588;28;20038;-64
2021/08/08 03:55:09;;;;;;;0.60;0.60;;;13.80;92.30;;;;;;5008893;28;20053;-64
2021/08/08 03:57:35;;;;;;;1.48;0.50;;;13.70;92.30;;;;;;5009652;28;20698;-64
2021/08/08 04:00:01;;;;;;;0.55;0.55;;;13.70;92.40;;;;;;5008353;28;20038;-64
2021/08/08 04:02:27;;;;;;;0.98;0.60;;;13.60;92.40;;;;;;5014064;28;20509;-64
2021/08/08 04:04:53;;;;;;;0.70;0.70;;;13.60;92.40;;;;;;5009102;28;20049;-64
2021/08/08 04:07:18;;;;;;;4.22;0.80;;;13.70;92.00;;;;;;5008319;28;20034;-64
2021/08/08 04:09:44;;;;;;;0.88;0.52;;;13.70;91.60;;;;;;5009559;28;20088;-64
2021/08/08 04:12:10;;;;;;;0.50;0.50;;;13.70;91.40;;;;;;5005961;28;20061;-65
2021/08/08 04:14:36;;;;;;;1.05;0.47;;;13.70;91.40;;;;;;5014226;28;20022;-65
2021/08/08 04:17:05;;;;;;;1.10;0.50;;;13.60;91.70;;;;;;5008243;28;20045;-65
2021/08/08 04:19:32;;;;;;;1.23;0.60;;;13.50;92.20;;;;;;5008067;28;20382;-64
2021/08/08 04:21:57;;;;;;;7.20;0.80;;;13.50;92.60;;;;;;5007208;28;20036;-64
2021/08/08 04:24:23;;;;;;;1.98;0.63;;;13.50;92.80;;;;;;5009905;28;20022;-64
2021/08/08 04:26:49;;;;;;;0.65;0.63;;;13.40;92.80;;;;;;5008891;28;20080;-64
2021/08/08 04:29:14;;;;;;;0.73;0.60;;;13.40;92.90;;;;;;5008498;28;20143;-64
2021/08/08 04:31:40;;;;;;;1.13;0.77;;;13.40;93.10;;;;;;5011222;28;20038;-64
2021/08/08 04:34:05;;;;;;;3.13;0.80;;;13.40;93.40;;;;;;5005318;28;20546;-64
2021/08/08 04:36:31;;;;;;;0.60;0.60;;;13.40;93.50;;;;;;5026417;28;20128;-64
2021/08/08 04:38:57;;;;;;;1.13;0.50;;;13.40;93.60;;;;;;5007657;28;20125;-64
2021/08/08 04:41:23;;;;;;;0.50;0.50;;;13.40;93.60;;;;;;5009218;28;20029;-64
2021/08/08 04:43:48;;;;;;;1.25;0.80;;;13.50;93.40;;;;;;5008327;28;20399;-64
2021/08/08 04:46:14;;;;;;;2.20;0.77;;;13.50;93.40;;;;;;5006576;28;20061;-64
2021/08/08 04:48:39;;;;;;;1.85;0.82;;;13.60;93.50;;;;;;5008789;28;20060;-64
2021/08/08 04:51:05;;;;;;;0.60;0.60;;;13.60;93.30;;;;;;5006687;28;20026;-64
2021/08/08 04:53:30;;;;;;;2.75;0.65;;;13.70;93.10;;;;;;5007576;28;20141;-64
2021/08/08 04:55:56;;;;;;;0.50;0.50;;;13.70;92.90;;;;;;5015119;28;20454;-64
2021/08/08 04:58:22;;;;;;;2.83;0.75;;;13.80;92.60;;;;;;5009755;28;20034;-65
2021/08/08 05:00:47;;;;;;;0.95;0.50;;;13.80;92.60;;;;;;5005343;28;20535;-65
2021/08/08 05:03:13;;;;;;;0.93;0.57;;;13.80;92.50;;;;;;5011318;28;20057;-64
2021/08/08 05:05:39;;;;;;;1.45;0.60;;;13.80;92.50;;;;;;5009333;28;20040;-65
2021/08/08 05:08:05;;;;;;;2.13;1.00;;;13.90;92.50;;;;;;5008945;28;20046;-64
2021/08/08 05:10:30;;;;;;;5.15;0.80;;;13.90;92.60;;;;;;5015730;28;20036;-64
2021/08/08 05:12:56;;;;;;;2.15;0.70;;;13.90;92.40;;;;;;5008474;28;20026;-65
2021/08/08 05:15:23;;;;;;;2.78;0.68;;;13.90;92.30;;;;;;5009495;28;20026;-64
2021/08/08 05:17:49;;;;;;;0.68;0.68;;;13.90;92.30;;;;;;5007051;28;20033;-64
2021/08/08 05:20:15;;;;;;;3.28;0.70;;;13.90;92.40;;;;;;5009585;28;20816;-64
2021/08/08 05:22:42;;;;;;;4.07;0.60;;;14.00;92.40;;;;;;5011157;28;20113;-64
2021/08/08 05:25:09;;;;;;;0.68;0.60;;;14.00;92.40;;;;;;5018522;28;20038;-64
2021/08/08 05:27:35;;;;;;;1.40;0.90;;;14.10;92.40;;;;;;5012964;28;20022;-64
2021/08/08 05:30:06;;;;;;;2.60;0.63;;;14.10;92.20;;;;;;5030066;28;20032;-65
2021/08/08 05:32:31;;;;;;;1.30;0.70;;;14.20;92.40;;;;;;5012184;28;20030;-64
2021/08/08 05:34:57;;;;;;;1.95;0.55;;;14.20;92.50;;;;;;5017855;28;20037;-64
2021/08/08 05:37:22;;;;;;;2.83;0.90;;;14.30;92.70;;;;;;5016561;28;20113;-64
2021/08/08 05:39:48;;;;;;;1.75;0.95;;;14.30;92.70;;;;;;5017723;28;20029;-65
2021/08/08 05:42:17;;;;;;;0.80;0.80;;;14.40;92.80;;;;;;5008871;28;20076;-64
2021/08/08 05:44:42;;;;;;;1.17;0.88;;;14.40;92.80;;;;;;5012347;28;20510;-65
2021/08/08 05:47:08;;;;;;;0.55;0.55;;;14.40;93.00;;;;;;5009462;28;20036;-64
2021/08/08 05:49:34;;;;;;;0.60;0.60;;;14.50;93.00;;;;;;5011822;28;20034;-64
2021/08/08 05:52:09;;;;;;;0.63;0.60;;;14.50;93.00;;;;;;5012911;28;20113;-65
2021/08/08 05:54:35;;;;;;;0.77;0.73;;;14.60;93.20;;;;;;5011178;28;20030;-64
2021/08/08 05:57:00;;;;;;;1.50;0.60;;;14.70;92.80;;;;;;5012694;28;20049;-64
2021/08/08 05:59:26;;;;;;;2.75;0.65;;;14.70;92.70;;;;;;5012232;28;20479;-64
2021/08/08 06:01:51;;;;;;;0.85;0.63;;;14.70;92.30;;;;;;5017647;28;20034;-64
2021/08/08 06:04:17;;;;;;;1.85;0.80;;;14.80;92.30;;;;;;5009389;28;20069;-64
2021/08/08 06:06:43;;;;;;;0.95;0.77;;;14.80;92.30;;;;;;5009705;28;20655;-64
2021/08/08 06:09:09;;;;;;;0.95;0.60;;;14.90;92.40;;;;;;5009470;28;20064;-65
2021/08/08 06:11:35;;;;;;;1.83;0.80;;;14.90;92.30;;;;;;5012974;28;20025;-64
2021/08/08 06:14:01;;;;;;;1.08;0.63;;;14.90;92.30;;;;;;5010598;28;20101;-65
2021/08/08 06:16:26;;;;;;;0.80;0.80;;;15.00;92.50;;;;;;5015051;28;20574;-64
2021/08/08 06:18:52;;;;;;;0.70;0.70;;;15.00;92.30;;;;;;5012692;28;21901;-64
2021/08/08 06:21:17;;;;;;;1.00;0.60;;;15.10;92.30;;;;;;5010124;28;20038;-65
2021/08/08 06:23:43;;;;;;;0.55;0.55;;;15.10;92.40;;;;;;5014031;28;20100;-64
2021/08/08 06:26:09;;;;;;;1.38;0.73;;;15.20;92.10;;;;;;5012241;28;20029;-64
2021/08/08 06:28:34;;;;;;;0.60;0.52;;;15.20;92.10;;;;;;5012189;28;20125;-64
2021/08/08 06:31:00;;;;;;;1.30;1.00;;;15.20;92.00;;;;;;5008948;28;20056;-65
2021/08/08 06:33:26;;;;;;;0.80;0.80;;;15.30;91.80;;;;;;5025309;28;20026;-64
2021/08/08 06:35:53;;;;;;;0.60;0.60;;;15.30;92.00;;;;;;5008824;28;20034;-64
2021/08/08 06:38:19;;;;;;;0.80;0.80;;;15.30;92.10;;;;;;5010131;28;20038;-64
2021/08/08 06:40:45;;;;;;;0.85;0.65;;;15.30;92.20;;;;;;5010547;28;20112;-64
2021/08/08 06:43:11;;;;;;;1.38;0.60;;;15.40;92.10;;;;;;5007218;28;20390;-67
2021/08/08 06:45:36;;;;;;;1.38;0.80;;;15.40;92.00;;;;;;5026588;28;20033;-65
2021/08/08 06:48:02;;;;;;;3.13;0.70;;;15.50;92.30;;;;;;5013559;28;20514;-66
2021/08/08 06:50:28;;;;;;;0.95;0.80;;;15.50;92.00;;;;;;5023162;28;20033;-65
2021/08/08 06:52:55;;;;;;;0.93;0.75;;;15.60;91.80;;;;;;5011926;28;20033;-64
2021/08/08 06:55:21;;;;;;;0.80;0.80;;;15.60;91.70;;;;;;5010426;28;20033;-64
2021/08/08 06:57:46;;;;;;;0.60;0.60;;;15.60;91.70;;;;;;5006675;28;20037;-64
2021/08/08 07:00:12;;;;;;;1.05;0.70;;;15.70;91.60;;;;;;5006930;28;20128;-64
2021/08/08 07:02:37;;;;;;;1.15;0.73;;;15.70;91.20;;;;;;5005801;28;20042;-64
2021/08/08 07:05:05;;;;;;;1.25;0.80;;;15.70;91.10;;;;;;5007579;28;21665;-64
2021/08/08 07:07:31;;;;;;;0.70;0.70;;;15.80;91.00;;;;;;5006552;28;20047;-64
2021/08/08 07:09:57;;;;;;;1.50;0.80;;;15.80;91.50;;;;;;5026901;28;20048;-64
2021/08/08 07:12:22;;;;;;;0.65;0.65;;;15.90;91.30;;;;;;5010256;28;20029;-65
2021/08/08 07:14:48;;;;;;;0.70;0.70;;;15.90;91.30;;;;;;5009288;28;20411;-64
2021/08/08 07:17:14;;;;;;;0.82;0.82;;;16.00;91.10;;;;;;5012232;28;20032;-65
2021/08/08 07:19:41;;;;;;;1.10;0.90;;;16.00;90.90;;;;;;5011218;28;20402;-66
2021/08/08 07:22:07;;;;;;;0.70;0.70;;;16.00;90.60;;;;;;5009813;28;20021;-64
2021/08/08 07:24:33;;;;;;;2.38;1.00;;;16.00;90.90;;;;;;5010505;28;20046;-65
2021/08/08 07:26:58;;;;;;;0.75;0.70;;;16.10;91.10;;;;;;5013011;28;20388;-65
2021/08/08 07:29:24;;;;;;;1.25;1.15;;;16.20;91.60;;;;;;5014284;28;20022;-64
2021/08/08 07:31:49;;;;;;;1.75;0.70;;;16.30;91.40;;;;;;5017130;28;20061;-65
2021/08/08 07:34:15;;;;;;;1.85;0.57;;;16.40;91.00;;;;;;5008243;28;20026;-65
2021/08/08 07:36:41;;;;;;;0.75;0.75;;;16.40;90.10;;;;;;5009407;28;20490;-65
2021/08/08 07:39:06;;;;;;;1.38;0.63;;;16.50;88.60;;;;;;5011124;28;20058;-65
2021/08/08 07:41:32;;;;;;;0.82;0.77;;;16.50;88.40;;;;;;5007742;28;20154;-64
2021/08/08 07:43:58;;;;;;;0.60;0.52;;;16.50;88.20;;;;;;5010673;28;20518;-65
2021/08/08 07:46:24;;;;;;;1.48;0.88;;;16.60;86.90;;;;;;5008854;28;20049;-64
2021/08/08 07:48:50;;;;;;;1.38;1.23;;;16.60;85.90;;;;;;5028117;28;20037;-65
2021/08/08 07:51:16;;;;;;;0.88;0.50;;;16.70;84.90;;;;;;5010654;28;20064;-65
2021/08/08 07:53:42;;;;;;;0.70;0.70;;;16.70;84.80;;;;;;5008890;28;20544;-65
2021/08/08 07:56:08;;;;;;;1.15;0.80;;;16.80;85.20;;;;;;5008959;28;20037;-64
2021/08/08 07:58:33;;;;;;;0.80;0.80;;;16.90;86.00;;;;;;5005574;28;20042;-65
2021/08/08 08:00:59;;;;;;;2.65;0.82;;;17.00;84.50;;;;;;5005237;28;20049;-65
2021/08/08 08:03:25;;;;;;;0.70;0.70;;;17.10;84.40;;;;;;5003109;28;20077;-65
2021/08/08 08:05:50;;;;;;;0.60;0.60;;;17.10;83.90;;;;;;5010112;28;20041;-65
2021/08/08 08:08:16;;;;;;;1.17;0.80;;;17.10;84.80;;;;;;5028635;28;20033;-65
2021/08/08 08:10:42;;;;;;;2.20;0.75;;;17.20;85.60;;;;;;5005891;28;20157;-65
2021/08/08 08:13:07;;;;;;;1.58;0.55;;;17.30;84.90;;;;;;5006960;28;20037;-65
2021/08/08 08:15:33;;;;;;;0.57;0.57;;;17.40;84.20;;;;;;5006033;28;20177;-64
2021/08/08 08:17:59;;;;;;;2.20;0.90;;;17.40;84.80;;;;;;5009309;28;20059;-64
2021/08/08 08:20:25;;;;;;;1.52;0.90;;;17.40;83.00;;;;;;5009638;28;20093;-65
2021/08/08 08:22:51;;;;;;;0.60;0.60;;;17.50;83.00;;;;;;5023746;28;20439;-65
2021/08/08 08:25:17;;;;;;;0.80;0.80;;;17.50;85.10;;;;;;5007217;28;20030;-65
2021/08/08 08:27:43;;;;;;;0.60;0.52;;;17.50;83.60;;;;;;5024000;28;20455;-65
2021/08/08 08:30:09;;;;;;;1.13;0.68;;;17.50;82.80;;;;;;5006394;28;20029;-65
2021/08/08 08:32:35;;;;;;;1.25;0.52;;;17.50;82.50;;;;;;5009517;28;20410;-65
2021/08/08 08:35:03;;;;;;;0.70;0.70;;;17.50;81.90;;;;;;5009662;28;20037;-65
2021/08/08 08:37:30;;;;;;;0.70;0.70;;;17.50;80.70;;;;;;5010039;28;20076;-65
2021/08/08 08:39:56;;;;;;;1.98;1.25;;;17.50;81.50;;;;;;5009940;28;20084;-65
2021/08/08 08:42:24;;;;;;;1.40;0.57;;;17.50;81.70;;;;;;5009882;28;20494;-64
2021/08/08 08:44:52;;;;;;;0.60;0.60;;;17.50;81.10;;;;;;5005809;28;20037;-65
2021/08/08 08:47:18;;;;;;;;;;;17.50;82.30;;;;;;5005332;28;20045;-64
2021/08/08 08:49:48;;;;;;;0.60;0.60;;;17.60;81.50;;;;;;5011431;28;19913;-64
2021/08/08 08:52:19;;;;;;;1.05;0.68;;;17.60;83.00;;;;;;5008426;28;20081;-64
2021/08/08 08:54:45;;;;;;;3.83;0.90;;;17.70;81.20;;;;;;5006959;28;20045;-65
2021/08/08 08:57:11;;;;;;;1.55;0.55;;;17.70;81.60;;;;;;5009456;28;20127;-64
2021/08/08 08:59:37;;;;;;;2.22;0.80;;;17.80;79.30;;;;;;5013025;28;20033;-64
2021/08/08 09:02:03;;;;;;;0.60;0.60;;;17.70;80.10;;;;;;5007081;28;20049;-64
2021/08/08 09:04:29;;;;;;;1.10;0.60;;;17.80;80.80;;;;;;5012276;28;20049;-64
2021/08/08 09:06:54;;;;;;;1.15;0.60;;;17.90;81.90;;;;;;5008790;28;20025;-64
2021/08/08 09:09:20;;;;;;;2.22;0.70;;;17.90;79.50;;;;;;5017353;28;20022;-64
2021/08/08 09:11:47;;;;;;;1.60;0.68;;;18.00;80.90;;;;;;5011055;28;20060;-64
2021/08/08 09:14:15;;;;;;;0.63;0.63;;;18.00;79.60;;;;;;5011916;28;20459;-63
2021/08/08 09:16:50;;;;;;;2.33;0.70;;;18.10;80.50;;;;;;5030849;28;20026;-64
2021/08/08 09:19:27;;;;;;;1.65;0.70;;;18.10;81.10;;;;;;5011961;28;20038;-64
2021/08/08 09:21:53;;;;;;;1.77;0.77;;;18.10;79.40;;;;;;5008366;28;20097;-64
2021/08/08 09:24:34;;;;;;;0.80;0.60;;;18.10;78.30;;;;;;5007027;28;20453;-64
2021/08/08 09:27:01;;;;;;;0.65;0.65;;;18.10;77.10;;;;;;5014949;28;20033;-64
2021/08/08 09:29:26;;;;;;;0.80;0.80;;;18.10;79.10;;;;;;5011113;28;20021;-64
2021/08/08 09:31:52;;;;;;;1.30;0.60;;;18.10;77.20;;;;;;5017557;28;20038;-64
2021/08/08 09:34:30;;;;;;;0.70;0.70;;;18.10;77.00;;;;;;5027126;28;20202;-64
2021/08/08 09:36:59;;;;;;;0.80;0.60;;;18.10;76.90;;;;;;5021347;28;20504;-65
2021/08/08 09:39:26;;;;;;;0.75;0.60;;;18.10;78.90;;;;;;5018259;28;20041;-64
2021/08/08 09:42:02;;;;;;;1.25;0.45;;;18.10;78.60;;;;;;5020617;28;20030;-64
2021/08/08 09:44:28;;;;;;;0.70;0.70;;;18.10;78.80;;;;;;5011054;28;20522;-64
2021/08/08 09:46:57;;;;;;;1.98;0.70;;;18.20;79.10;;;;;;5026986;28;20030;-64
2021/08/08 09:49:24;;;;;;;0.80;0.77;;;18.30;79.50;;;;;;5011739;28;20030;-64
2021/08/08 09:51:51;;;;;;;1.00;0.80;;;18.30;79.30;;;;;;5013008;28;20467;-65
2021/08/08 09:54:17;;;;;;;1.25;0.80;;;18.30;78.00;;;;;;5010076;28;20022;-64
2021/08/08 09:56:43;;;;;;;0.50;0.50;;;18.30;77.80;;;;;;5013538;28;20057;-64
2021/08/08 09:59:08;;;;;;;1.35;0.57;;;18.30;76.80;;;;;;5012384;28;20053;-64
2021/08/08 10:01:39;;;;;;;4.05;0.80;;;18.30;76.90;;;;;;5009986;28;20038;-64
2021/08/08 10:04:06;;;;;;;0.50;0.50;;;18.20;77.30;;;;;;5012893;28;20058;-64
2021/08/08 10:06:33;;;;;;;1.27;0.60;;;18.30;78.80;;;;;;5010786;28;20083;-64
2021/08/08 10:09:01;;;;;;;1.55;0.73;;;18.30;77.60;;;;;;5012609;28;20037;-64
2021/08/08 10:11:28;;;;;;;1.70;0.93;;;18.40;77.30;;;;;;5013456;28;20030;-64
2021/08/08 10:14:02;;;;;;;1.30;0.70;;;18.50;76.20;;;;;;5006417;28;20109;-64
2021/08/08 10:16:31;;;;;;;0.70;0.70;;;18.50;76.60;;;;;;5011048;28;20049;-64
2021/08/08 10:19:01;;;;;;;1.45;0.75;;;18.50;77.30;;;;;;5013998;28;20034;-64
2021/08/08 10:21:29;;;;;;;2.03;0.77;;;18.50;77.40;;;;;;5012471;28;20037;-64
2021/08/08 10:24:03;;;;;;;1.50;0.80;;;18.70;77.40;;;;;;5007027;28;20117;-65
2021/08/08 10:26:30;;;;;;;2.75;0.73;;;18.80;76.80;;;;;;5027853;28;20042;-64
2021/08/08 10:28:57;;;;;;;1.25;0.80;;;18.80;74.60;;;;;;5007696;28;20030;-65
2021/08/08 10:31:28;;;;;;;0.75;0.75;;;18.70;76.20;;;;;;5009957;28;20479;-65
2021/08/08 10:33:57;;;;;;;0.60;0.60;;;18.80;76.10;;;;;;5012439;28;20402;-64
2021/08/08 10:36:26;;;;;;;1.23;0.90;;;18.80;74.40;;;;;;5010504;28;20026;-65
2021/08/08 10:39:04;;;;;;;1.65;0.68;;;18.90;76.10;;;;;;5010455;28;20030;-64
2021/08/08 10:41:30;;;;;;;1.05;0.80;;;18.90;71.70;;;;;;5012444;28;20062;-64
2021/08/08 10:44:10;;;;;;;1.13;0.93;;;18.90;74.50;;;;;;5009165;28;20061;-64
2021/08/08 10:46:52;;;;;;;0.70;0.70;;;19.10;75.10;;;;;;5010671;28;20032;-64
2021/08/08 10:49:29;;;;;;;2.72;1.25;;;19.20;75.40;;;;;;5026389;28;20044;-64
2021/08/08 10:52:01;;;;;;;0.73;0.73;;;19.30;71.60;;;;;;5010929;28;20030;-65
2021/08/08 10:54:27;;;;;;;1.75;0.60;;;19.40;73.80;;;;;;5011327;28;20774;-65
2021/08/08 10:56:53;;;;;;;1.95;0.70;;;19.40;73.30;;;;;;5013435;28;20128;-64
2021/08/08 10:59:22;;;;;;;0.90;0.75;;;19.40;71.10;;;;;;5013199;28;20041;-64
2021/08/08 11:02:08;;;;;;;1.83;0.70;;;19.40;68.20;;;;;;5006247;28;20042;-65
2021/08/08 11:04:35;;;;;;;0.50;0.50;;;19.40;70.60;;;;;;5006802;28;20076;-64
2021/08/08 11:07:05;;;;;;;0.60;0.60;;;19.30;69.10;;;;;;5003695;28;20038;-65
2021/08/08 11:09:35;;;;;;;1.30;0.60;;;19.20;68.20;;;;;;5002974;28;20026;-65
2021/08/08 11:12:01;;;;;;;1.27;1.25;;;19.20;69.70;;;;;;5019956;28;20041;-65
2021/08/08 11:14:27;;;;;;;1.10;0.80;;;19.20;69.60;;;;;;5002653;28;20017;-64
2021/08/08 11:17:03;;;;;;;3.08;1.38;;;19.20;68.20;;;;;;5004828;28;20045;-67
2021/08/08 11:19:40;;;;;;;0.60;0.60;;;19.20;66.90;;;;;;5004697;28;20048;-64
2021/08/08 11:22:10;;;;;;;0.88;0.75;;;19.30;69.00;;;;;;5007594;28;20530;-65
2021/08/08 11:24:37;;;;;;;0.70;0.60;;;19.40;68.20;;;;;;5007801;28;20018;-65
2021/08/08 11:27:05;;;;;;;0.70;0.70;;;19.40;71.20;;;;;;5004885;28;20061;-66
2021/08/08 11:29:32;;;;;;;0.95;0.60;;;19.50;70.20;;;;;;5005110;28;20036;-65
2021/08/08 11:31:59;;;;;;;0.88;0.80;;;19.50;71.20;;;;;;5002171;28;20040;-65
2021/08/08 11:34:26;;;;;;;1.17;0.70;;;19.50;70.60;;;;;;5000735;28;20034;-65
2021/08/08 11:36:56;;;;;;;0.70;0.70;;;19.50;70.20;;;;;;5004178;28;20037;-65
2021/08/08 11:39:22;;;;;;;0.85;0.68;;;19.40;68.90;;;;;;5000569;28;20030;-65
2021/08/08 11:41:48;;;;;;;0.55;0.55;;;19.40;69.00;;;;;;5004074;28;20034;-65
2021/08/08 11:44:15;;;;;;;0.73;0.73;;;19.40;67.90;;;;;;5004160;28;20374;-66
2021/08/08 11:46:54;;;;;;;1.92;0.77;;;19.30;68.10;;;;;;5004696;28;20030;-65
2021/08/08 11:49:22;;;;;;;0.85;0.75;;;19.30;67.90;;;;;;5004516;28;20475;-65
2021/08/08 11:51:58;;;;;;;1.67;0.73;;;19.30;67.00;;;;;;5004175;28;20022;-65
2021/08/08 11:54:32;;;;;;;1.48;0.60;;;19.30;68.70;;;;;;5006618;28;20034;-64
2021/08/08 11:56:59;;;;;;;1.65;0.80;;;19.30;68.10;;;;;;5009760;28;20052;-65
2021/08/08 11:59:30;;;;;;;1.20;0.68;;;19.30;68.80;;;;;;5007701;28;20026;-65
2021/08/08 12:02:03;;;;;;;2.85;0.63;;;19.20;69.30;;;;;;5013223;28;20046;-64
2021/08/08 12:04:33;;;;;;;0.60;0.60;;;19.20;69.10;;;;;;5007688;28;20069;-64
2021/08/08 12:07:03;;;;;;;1.02;0.80;;;19.20;69.30;;;;;;5006188;28;20093;-65
2021/08/08 12:09:29;;;;;;;0.40;0.40;;;19.10;68.50;;;;;;5025270;28;20437;-64
2021/08/08 12:11:56;;;;;;;2.58;0.93;;;19.10;70.50;;;;;;5005223;28;20026;-65
2021/08/08 12:14:37;;;;;;;0.75;0.75;;;19.00;69.90;;;;;;5005961;28;20405;-64
2021/08/08 12:17:04;;;;;;;1.13;0.70;;;19.00;68.50;;;;;;5004426;28;20125;-64
2021/08/08 12:19:31;;;;;;;1.30;0.90;;;18.90;69.60;;;;;;5000223;28;20199;-66
2021/08/08 12:22:08;;;;;;;2.80;0.90;;;18.90;68.40;;;;;;5002667;28;20037;-64
2021/08/08 12:24:36;;;;;;;1.40;0.73;;;19.00;69.30;;;;;;5004341;28;20026;-65
2021/08/08 12:27:03;;;;;;;0.75;0.50;;;19.00;69.00;;;;;;5003312;28;20112;-64
2021/08/08 12:29:30;;;;;;;1.25;0.60;;;19.00;69.30;;;;;;5004697;28;20033;-64
2021/08/08 12:32:05;;;;;;;1.77;0.88;;;18.90;68.70;;;;;;5002069;28;20683;-66
2021/08/08 12:34:31;;;;;;;2.67;1.00;;;19.00;70.20;;;;;;4997879;28;20619;-65
2021/08/08 12:37:07;;;;;;;1.30;0.85;;;19.00;69.00;;;;;;5003721;28;20113;-64
2021/08/08 12:39:33;;;;;;;0.73;0.60;;;19.00;70.00;;;;;;5006747;28;20053;-65
2021/08/08 12:41:59;;;;;;;2.35;0.88;;;19.00;68.40;;;;;;5019293;28;20044;-64
2021/08/08 12:44:36;;;;;;;0.85;0.85;;;19.00;68.60;;;;;;5007334;28;20026;-64
2021/08/08 12:47:04;;;;;;;1.70;0.80;;;18.90;68.40;;;;;;5005370;28;20034;-65